Time;durP1;ratioP1;P1;durP2;ratioP2;P2;SDS_P1;SDS_P2;PMS_P1;PMS_P2;Temp;Humidity;BMP_temperature;BMP_pressure;BME280_temperature;BME280_humidity;BME280_pressure;Samples;Min_cycle;Max_cycle;Signal;HPM_P1;HPM_P2
2021/12/13 00:01:30;;;;;;;3.57;3.37;;;7.20;46.50;;;;;;10279091;28;20239;-74
2021/12/13 00:06:40;;;;;;;3.60;3.40;;;7.20;46.60;;;;;;10280269;28;20647;-73
2021/12/13 00:11:45;;;;;;;3.23;2.93;;;7.20;46.80;;;;;;10277212;28;20240;-73
2021/12/13 00:16:51;;;;;;;2.97;2.77;;;7.20;46.60;;;;;;10271946;28;20224;-73
2021/12/13 00:22:02;;;;;;;3.33;3.10;;;7.20;46.60;;;;;;10274264;28;20255;-70
2021/12/13 00:27:10;;;;;;;3.20;2.90;;;7.20;46.80;;;;;;10275353;28;20220;-70
2021/12/13 00:32:19;;;;;;;3.10;2.90;;;7.20;46.50;;;;;;10275200;28;20231;-70
2021/12/13 00:37:30;;;;;;;3.30;3.10;;;7.30;46.90;;;;;;10269628;28;20239;-69
2021/12/13 00:42:36;;;;;;;3.40;3.20;;;7.30;46.90;;;;;;10270782;28;20239;-69
2021/12/13 00:47:43;;;;;;;3.13;2.93;;;7.30;46.70;;;;;;10274683;28;20266;-70
2021/12/13 00:52:51;;;;;;;3.33;3.13;;;7.30;46.70;;;;;;10274693;28;20243;-74
2021/12/13 00:58:07;;;;;;;3.53;3.33;;;7.30;46.80;;;;;;10276792;28;20573;-73
2021/12/13 01:03:14;;;;;;;3.90;3.60;;;7.30;47.00;;;;;;10279809;28;20812;-73
2021/12/13 01:08:43;;;;;;;4.17;3.87;;;7.30;46.60;;;;;;10273261;28;20229;-73
2021/12/13 01:14:18;;;;;;;3.50;3.30;;;7.30;47.20;;;;;;10275318;28;20271;-73
2021/12/13 01:19:32;;;;;;;3.87;3.57;;;7.30;47.10;;;;;;10256208;28;20702;-73
2021/12/13 01:29:54;;;;;;;4.17;3.87;;;7.30;46.70;;;;;;10268965;28;20236;-73
2021/12/13 01:34:58;;;;;;;3.80;3.50;;;7.30;46.50;;;;;;10274715;28;20235;-73
2021/12/13 01:40:08;;;;;;;3.80;3.60;;;7.40;46.50;;;;;;10273776;28;20251;-73
2021/12/13 01:45:14;;;;;;;4.07;3.77;;;7.30;46.90;;;;;;10273433;28;20234;-73
2021/12/13 01:50:23;;;;;;;3.77;3.47;;;7.30;46.70;;;;;;10278635;28;20235;-72
2021/12/13 01:55:33;;;;;;;4.30;4.00;;;7.30;47.20;;;;;;10273722;28;20238;-73
2021/12/13 02:01:09;;;;;;;4.20;3.90;;;7.30;47.00;;;;;;10273306;28;20237;-73
2021/12/13 02:06:08;;;;;;;4.33;4.03;;;7.30;46.90;;;;;;10273667;28;20235;-73
2021/12/13 02:11:14;;;;;;;4.60;4.20;;;7.40;46.80;;;;;;10274283;28;20232;-73
2021/12/13 02:21:38;;;;;;;4.17;3.87;;;7.40;46.70;;;;;;10275025;28;20223;-73
2021/12/13 02:26:47;;;;;;;4.30;3.97;;;7.40;46.80;;;;;;10272461;28;20238;-73
2021/12/13 02:31:51;;;;;;;4.50;4.20;;;7.30;47.10;;;;;;10272785;28;20255;-72
2021/12/13 02:36:55;;;;;;;4.43;4.13;;;7.40;46.80;;;;;;10272887;28;20645;-73
2021/12/13 02:42:01;;;;;;;4.43;4.13;;;7.40;47.00;;;;;;10273274;28;20705;-73
2021/12/13 02:47:09;;;;;;;4.50;4.20;;;7.40;47.10;;;;;;10274702;28;20236;-73
2021/12/13 02:52:16;;;;;;;4.20;3.90;;;7.40;47.00;;;;;;10273853;28;20616;-73
2021/12/13 02:57:24;;;;;;;5.10;4.60;;;7.40;47.00;;;;;;10265091;28;20228;-73
2021/12/13 03:02:31;;;;;;;4.60;4.30;;;7.40;47.00;;;;;;10274876;28;20231;-73
2021/12/13 03:07:39;;;;;;;4.53;4.23;;;7.40;47.00;;;;;;10271477;28;20547;-73
2021/12/13 03:12:44;;;;;;;4.70;4.30;;;7.40;47.20;;;;;;10275273;28;20247;-73
2021/12/13 03:17:53;;;;;;;5.07;4.70;;;7.40;47.20;;;;;;10278641;28;20235;-73
2021/12/13 03:23:16;;;;;;;4.57;4.27;;;7.40;47.20;;;;;;10276005;28;20246;-73
2021/12/13 03:28:43;;;;;;;5.07;4.67;;;7.50;47.70;;;;;;10280209;28;20301;-70
2021/12/13 03:33:57;;;;;;;4.90;4.60;;;7.50;47.60;;;;;;10274937;28;20258;-70
2021/12/13 03:39:01;;;;;;;5.20;4.80;;;7.50;47.40;;;;;;10277780;28;20243;-70
2021/12/13 03:44:10;;;;;;;5.17;4.77;;;7.50;47.00;;;;;;10279724;28;20228;-73
2021/12/13 03:49:14;;;;;;;5.67;5.17;;;7.50;47.30;;;;;;10278535;28;20227;-73
2021/12/13 03:54:19;;;;;;;5.80;5.40;;;7.50;46.90;;;;;;10278705;28;20243;-73
2021/12/13 03:59:27;;;;;;;5.67;5.27;;;7.50;47.10;;;;;;10275173;28;20244;-73
2021/12/13 04:04:35;;;;;;;5.47;5.07;;;7.50;47.20;;;;;;10278794;28;20729;-73
2021/12/13 04:09:39;;;;;;;6.17;5.67;;;7.50;47.30;;;;;;10278235;28;20753;-73
2021/12/13 04:14:50;;;;;;;5.60;5.20;;;7.50;47.00;;;;;;10280904;28;20759;-73
2021/12/13 04:19:58;;;;;;;5.73;5.30;;;7.50;47.40;;;;;;10279236;28;20235;-73
2021/12/13 04:25:05;;;;;;;5.13;4.73;;;7.40;47.20;;;;;;10276721;28;20227;-71
2021/12/13 04:30:22;;;;;;;5.63;5.23;;;7.40;47.30;;;;;;10273539;28;20620;-73
2021/12/13 04:35:27;;;;;;;6.00;5.50;;;7.40;47.90;;;;;;10275329;28;20237;-73
2021/12/13 04:40:33;;;;;;;5.23;4.83;;;7.40;47.50;;;;;;10278602;28;20239;-73
2021/12/13 04:45:42;;;;;;;5.83;5.33;;;7.40;47.70;;;;;;10275684;28;20265;-73
2021/12/13 04:50:51;;;;;;;5.57;5.17;;;7.40;47.80;;;;;;10276274;28;20250;-73
2021/12/13 04:55:56;;;;;;;6.57;6.00;;;7.40;47.90;;;;;;10278114;28;20227;-73
2021/12/13 05:01:06;;;;;;;10.20;9.30;;;7.40;47.70;;;;;;10273197;28;20278;-73
2021/12/13 05:06:14;;;;;;;8.50;7.80;;;7.40;48.10;;;;;;10277035;28;20267;-73
2021/12/13 05:11:18;;;;;;;6.57;6.07;;;7.50;48.00;;;;;;10276328;28;20235;-73
2021/12/13 05:16:36;;;;;;;5.93;5.43;;;7.50;47.70;;;;;;10279082;28;20274;-73
2021/12/13 05:21:42;;;;;;;6.70;6.20;;;7.50;48.20;;;;;;10274322;28;20228;-73
2021/12/13 05:26:53;;;;;;;7.00;6.40;;;7.60;47.80;;;;;;10276319;28;20223;-73
2021/12/13 05:32:01;;;;;;;6.33;5.83;;;7.60;48.20;;;;;;10275822;28;20270;-73
2021/12/13 05:37:08;;;;;;;7.57;6.90;;;7.60;48.10;;;;;;10272453;28;20355;-71
2021/12/13 05:42:12;;;;;;;7.53;6.83;;;7.60;47.90;;;;;;10275428;28;20235;-70
2021/12/13 05:47:22;;;;;;;9.73;8.83;;;7.70;47.90;;;;;;10274137;28;20231;-71
2021/12/13 05:52:33;;;;;;;11.63;10.53;;;7.70;48.20;;;;;;10272653;28;20243;-71
2021/12/13 05:57:43;;;;;;;11.03;10.03;;;7.70;48.20;;;;;;10272098;28;20254;-73
2021/12/13 06:03:01;;;;;;;10.93;10.00;;;7.70;47.90;;;;;;10271972;28;20720;-73
2021/12/13 06:08:09;;;;;;;9.33;8.43;;;7.70;48.40;;;;;;10270969;28;20247;-71
2021/12/13 06:13:23;;;;;;;9.27;8.47;;;7.70;47.80;;;;;;10274705;28;20242;-73
2021/12/13 06:18:36;;;;;;;9.13;8.33;;;7.70;48.20;;;;;;10271363;28;20890;-73
2021/12/13 06:23:40;;;;;;;8.27;7.57;;;7.70;48.10;;;;;;10270771;28;20228;-73
2021/12/13 06:28:53;;;;;;;8.90;8.10;;;7.70;47.80;;;;;;10273443;28;20247;-73
2021/12/13 06:34:01;;;;;;;9.23;8.37;;;7.70;48.20;;;;;;10270095;28;20242;-73
2021/12/13 06:39:07;;;;;;;9.30;8.43;;;7.70;48.10;;;;;;10270190;28;20232;-71
2021/12/13 06:44:19;;;;;;;9.37;8.57;;;7.70;48.00;;;;;;10274693;28;20841;-71
2021/12/13 06:49:29;;;;;;;9.07;8.27;;;7.80;48.40;;;;;;10270925;28;20235;-69
2021/12/13 06:54:36;;;;;;;9.77;8.90;;;7.80;48.30;;;;;;10275723;28;20235;-73
2021/12/13 06:59:49;;;;;;;9.93;9.13;;;7.80;48.20;;;;;;10274160;28;20714;-73
2021/12/13 07:05:01;;;;;;;9.63;8.73;;;7.80;48.30;;;;;;10272286;28;20238;-73
2021/12/13 07:10:10;;;;;;;10.60;9.60;;;7.80;48.20;;;;;;10274904;28;20219;-73
2021/12/13 07:15:44;;;;;;;10.60;9.60;;;7.80;48.10;;;;;;10274596;28;20239;-73
2021/12/13 07:20:54;;;;;;;10.40;9.50;;;7.80;48.40;;;;;;10272086;28;20231;-73
2021/12/13 07:26:02;;;;;;;10.47;9.47;;;7.80;48.10;;;;;;10270096;28;20238;-71
2021/12/13 07:31:07;;;;;;;12.20;10.93;;;7.80;47.90;;;;;;10268759;28;20246;-71
2021/12/13 07:36:25;;;;;;;10.63;9.63;;;7.80;48.30;;;;;;10274824;28;20259;-71
2021/12/13 07:41:41;;;;;;;10.70;9.73;;;7.80;48.80;;;;;;10268500;28;20231;-71
2021/12/13 07:46:58;;;;;;;11.63;10.63;;;7.80;48.70;;;;;;10272063;28;20728;-71
2021/12/13 07:52:05;;;;;;;9.50;8.70;;;7.80;48.70;;;;;;10271754;28;20223;-71
2021/12/13 07:57:19;;;;;;;9.23;8.33;;;7.90;48.40;;;;;;10270521;28;20610;-70
2021/12/13 08:02:27;;;;;;;9.17;8.37;;;7.80;48.60;;;;;;10279437;28;20761;-71
2021/12/13 08:07:40;;;;;;;8.80;8.03;;;7.80;48.40;;;;;;10276314;28;20644;-71
2021/12/13 08:12:48;;;;;;;8.47;7.77;;;7.90;48.60;;;;;;10279326;28;20748;-71
2021/12/13 08:17:54;;;;;;;8.40;7.70;;;7.90;48.50;;;;;;10270857;28;20234;-71
2021/12/13 08:23:00;;;;;;;8.43;7.73;;;7.90;48.40;;;;;;10276281;28;20247;-71
2021/12/13 08:28:06;;;;;;;8.23;7.53;;;8.00;48.50;;;;;;10278090;28;20243;-69
2021/12/13 08:33:12;;;;;;;8.37;7.43;;;8.00;48.60;;;;;;10276295;28;20614;-70
2021/12/13 08:38:28;;;;;;;8.30;7.50;;;8.00;48.60;;;;;;10274244;28;20712;-70
2021/12/13 08:43:38;;;;;;;7.93;7.23;;;8.00;49.30;;;;;;10272266;28;20234;-69
2021/12/13 08:48:51;;;;;;;7.03;6.43;;;8.10;49.10;;;;;;10265175;28;20630;-69
2021/12/13 08:54:13;;;;;;;8.33;7.63;;;8.10;49.10;;;;;;10270029;28;20224;-69
2021/12/13 08:59:23;;;;;;;8.00;7.30;;;8.10;49.30;;;;;;10272836;28;20238;-69
2021/12/13 09:04:30;;;;;;;8.77;7.97;;;8.20;49.00;;;;;;10268874;28;20246;-69
2021/12/13 09:09:35;;;;;;;8.57;7.87;;;8.20;48.80;;;;;;10266277;28;20752;-70
2021/12/13 09:14:43;;;;;;;8.00;7.33;;;8.20;48.90;;;;;;10263845;28;20240;-70
2021/12/13 09:19:55;;;;;;;7.60;7.00;;;8.30;49.10;;;;;;10261940;28;20232;-70
2021/12/13 09:25:05;;;;;;;8.40;7.70;;;8.30;49.50;;;;;;10261669;28;20234;-70
2021/12/13 09:30:21;;;;;;;8.00;7.30;;;8.40;49.30;;;;;;10265802;28;20648;-71
2021/12/13 09:35:34;;;;;;;8.57;7.87;;;8.50;49.40;;;;;;10265264;28;20234;-71
2021/12/13 09:40:42;;;;;;;9.50;8.70;;;8.50;49.50;;;;;;10267367;28;20238;-71
2021/12/13 09:45:52;;;;;;;9.73;8.83;;;8.60;49.20;;;;;;10269096;28;20363;-71
2021/12/13 09:51:00;;;;;;;10.67;9.77;;;8.60;49.00;;;;;;10262211;28;20315;-70
2021/12/13 09:56:10;;;;;;;11.33;10.33;;;8.70;49.20;;;;;;10265100;28;20265;-71
2021/12/13 10:01:16;;;;;;;11.40;10.50;;;8.70;49.10;;;;;;10263052;28;20575;-70
2021/12/13 10:06:25;;;;;;;10.93;9.93;;;8.70;48.80;;;;;;10259224;28;20599;-69
2021/12/13 10:11:35;;;;;;;11.07;10.13;;;8.80;49.20;;;;;;10252897;28;20235;-69
2021/12/13 10:16:42;;;;;;;10.07;9.20;;;8.80;49.30;;;;;;10263225;28;20242;-73
2021/12/13 10:21:47;;;;;;;10.60;9.73;;;8.90;49.40;;;;;;10267896;28;20257;-72
2021/12/13 10:26:54;;;;;;;10.50;9.60;;;8.90;49.20;;;;;;10270312;28;20800;-73
2021/12/13 10:32:17;;;;;;;9.97;9.07;;;8.90;49.40;;;;;;10265826;28;20246;-73
2021/12/13 10:37:23;;;;;;;7.87;7.17;;;9.00;49.30;;;;;;10273848;28;20219;-71
2021/12/13 10:42:32;;;;;;;8.23;7.53;;;9.10;49.30;;;;;;10268356;28;20239;-73
2021/12/13 10:47:37;;;;;;;9.73;8.30;;;9.20;49.40;;;;;;10272706;28;20231;-73
2021/12/13 10:52:44;;;;;;;9.00;8.20;;;9.20;49.10;;;;;;10272778;28;20236;-73
2021/12/13 10:57:50;;;;;;;8.17;7.47;;;9.20;49.20;;;;;;10269695;28;20610;-74
2021/12/13 11:02:55;;;;;;;7.70;7.10;;;9.30;49.00;;;;;;10269071;28;20235;-73
2021/12/13 11:08:00;;;;;;;9.83;8.93;;;9.30;48.90;;;;;;10271804;28;20251;-73
2021/12/13 11:13:05;;;;;;;9.60;8.80;;;9.40;49.10;;;;;;10271523;28;20549;-73
2021/12/13 11:18:12;;;;;;;9.27;8.37;;;9.40;49.10;;;;;;10269485;28;20235;-73
2021/12/13 11:23:19;;;;;;;9.80;8.90;;;9.50;49.30;;;;;;10270327;28;20230;-71
2021/12/13 11:28:25;;;;;;;10.23;9.37;;;9.50;49.90;;;;;;10269223;28;20258;-71
2021/12/13 11:33:52;;;;;;;9.83;8.93;;;9.60;49.30;;;;;;10272494;28;20232;-71
2021/12/13 11:39:44;;;;;;;8.30;7.60;;;9.60;49.50;;;;;;10276950;28;20235;-71
2021/12/13 11:45:06;;;;;;;9.17;8.33;;;9.60;49.40;;;;;;10274669;28;20239;-71
2021/12/13 11:50:47;;;;;;;9.97;9.07;;;9.60;49.40;;;;;;10273822;28;20236;-72
2021/12/13 11:56:15;;;;;;;9.63;8.83;;;9.60;49.50;;;;;;10273116;28;20323;-70
2021/12/13 12:02:01;;;;;;;9.20;8.33;;;9.60;49.80;;;;;;10279760;28;20235;-70
2021/12/13 12:07:39;;;;;;;7.53;6.93;;;9.60;49.90;;;;;;10266888;28;20277;-68
2021/12/13 12:13:08;;;;;;;8.10;7.40;;;9.70;49.90;;;;;;10269544;28;20247;-70
2021/12/13 12:18:18;;;;;;;8.10;7.40;;;9.70;50.00;;;;;;10270378;28;20691;-70
2021/12/13 12:23:27;;;;;;;7.97;7.27;;;9.70;49.60;;;;;;10272028;28;22356;-70
2021/12/13 12:28:33;;;;;;;8.23;7.53;;;9.70;49.40;;;;;;10267836;28;20694;-70
2021/12/13 12:33:40;;;;;;;8.47;7.77;;;9.80;49.10;;;;;;10269789;28;20228;-70
2021/12/13 12:39:20;;;;;;;8.57;7.87;;;9.70;49.40;;;;;;10269115;28;20809;-70
2021/12/13 12:44:31;;;;;;;9.03;8.23;;;9.80;50.00;;;;;;10263019;28;20240;-71
2021/12/13 12:49:36;;;;;;;7.27;6.67;;;9.80;49.70;;;;;;10268191;28;20239;-72
2021/12/13 12:54:39;;;;;;;6.63;6.07;;;9.90;49.40;;;;;;10266209;28;20231;-72
2021/12/13 12:59:43;;;;;;;8.07;7.37;;;9.80;49.00;;;;;;10269485;28;20235;-73
2021/12/13 13:04:50;;;;;;;7.20;6.60;;;10.00;48.20;;;;;;10268813;28;20238;-73
2021/12/13 13:09:57;;;;;;;7.50;6.80;;;10.00;48.20;;;;;;10274805;28;20605;-69
2021/12/13 13:15:05;;;;;;;7.53;6.83;;;10.00;48.10;;;;;;10276480;28;20238;-68
2021/12/13 13:20:14;;;;;;;7.30;6.70;;;10.00;48.30;;;;;;10269022;28;20232;-69
2021/12/13 13:25:20;;;;;;;7.30;6.70;;;10.00;48.20;;;;;;10273143;28;20234;-73
2021/12/13 13:30:30;;;;;;;8.17;7.47;;;10.00;48.00;;;;;;10272362;28;20235;-72
2021/12/13 13:35:35;;;;;;;7.43;6.83;;;10.10;48.30;;;;;;10273786;28;20228;-73
2021/12/13 13:40:38;;;;;;;6.50;6.00;;;10.10;48.10;;;;;;10268536;28;20236;-73
2021/12/13 13:45:45;;;;;;;6.27;5.77;;;10.10;48.00;;;;;;10273192;28;20590;-72
2021/12/13 13:50:51;;;;;;;6.53;6.03;;;10.00;48.20;;;;;;10271830;28;20238;-72
2021/12/13 13:56:00;;;;;;;6.30;5.80;;;10.10;48.50;;;;;;10273421;28;20232;-72
2021/12/13 14:01:10;;;;;;;6.60;6.10;;;10.10;48.30;;;;;;10274147;28;20246;-73
2021/12/13 14:06:18;;;;;;;6.70;6.20;;;10.10;48.30;;;;;;10272231;28;20777;-73
2021/12/13 14:11:21;;;;;;;5.97;5.47;;;10.20;48.20;;;;;;10270051;28;20239;-69
2021/12/13 14:16:28;;;;;;;6.87;6.27;;;10.10;47.70;;;;;;10268113;28;20244;-69
2021/12/13 14:21:32;;;;;;;7.20;6.60;;;10.20;48.00;;;;;;10270909;28;20290;-69
2021/12/13 14:26:35;;;;;;;6.30;5.80;;;10.10;47.90;;;;;;10274825;28;20227;-69
2021/12/13 14:31:42;;;;;;;11.87;10.67;;;10.10;47.60;;;;;;10271317;28;20250;-68
2021/12/13 14:36:49;;;;;;;8.53;7.83;;;10.00;47.70;;;;;;10270620;28;20235;-68
2021/12/13 14:41:56;;;;;;;7.10;6.50;;;10.00;47.90;;;;;;10262934;28;20242;-69
2021/12/13 14:47:01;;;;;;;6.63;6.03;;;9.90;48.80;;;;;;10266574;28;20223;-68
2021/12/13 14:52:09;;;;;;;8.60;7.90;;;9.90;48.80;;;;;;10265878;28;20223;-69
2021/12/13 14:57:17;;;;;;;6.73;6.07;;;9.90;49.10;;;;;;10266865;28;20797;-69
2021/12/13 15:02:24;;;;;;;6.77;6.20;;;9.90;49.00;;;;;;10270076;28;20251;-69
2021/12/13 15:07:34;;;;;;;6.43;5.83;;;9.80;49.00;;;;;;10270052;28;20235;-69
2021/12/13 15:12:40;;;;;;;6.70;6.10;;;9.90;50.00;;;;;;10278171;28;20246;-68
2021/12/13 15:17:51;;;;;;;6.37;5.77;;;9.90;49.30;;;;;;10272375;28;21639;-69
2021/12/13 15:22:58;;;;;;;6.17;5.67;;;9.90;49.40;;;;;;10280276;28;20238;-69
2021/12/13 15:28:02;;;;;;;6.03;5.53;;;9.90;49.20;;;;;;10276269;28;20231;-70
2021/12/13 15:33:07;;;;;;;6.03;5.53;;;9.90;49.00;;;;;;10272177;28;20231;-70
2021/12/13 15:38:14;;;;;;;5.93;5.43;;;9.90;48.90;;;;;;10278325;28;20242;-70
2021/12/13 15:43:20;;;;;;;6.30;5.73;;;9.90;49.10;;;;;;10275021;28;20242;-71
2021/12/13 15:53:51;;;;;;;10.73;9.80;;;9.90;48.70;;;;;;10278418;28;20796;-71
2021/12/13 15:58:57;;;;;;;6.00;5.50;;;9.90;48.80;;;;;;10272133;28;20254;-71
2021/12/13 16:04:04;;;;;;;6.17;5.67;;;9.90;48.70;;;;;;10274151;28;20224;-71
2021/12/13 16:09:11;;;;;;;6.10;5.53;;;9.80;48.60;;;;;;10276962;28;20646;-73
2021/12/13 16:14:34;;;;;;;9.93;7.17;;;9.80;48.80;;;;;;10273914;28;20800;-73
2021/12/13 16:19:58;;;;;;;8.27;7.40;;;9.80;48.90;;;;;;10272846;28;20238;-73
2021/12/13 16:25:09;;;;;;;6.10;5.60;;;9.70;48.70;;;;;;10275223;28;20223;-69
2021/12/13 16:30:13;;;;;;;7.53;6.73;;;9.70;48.80;;;;;;10273230;28;20602;-68
2021/12/13 16:35:18;;;;;;;5.67;5.17;;;9.70;48.60;;;;;;10276030;28;20239;-69
2021/12/13 16:40:24;;;;;;;6.00;5.43;;;9.70;48.90;;;;;;10273521;28;20231;-69
2021/12/13 16:45:31;;;;;;;6.93;6.30;;;9.70;49.10;;;;;;10272056;28;20761;-73
2021/12/13 16:50:36;;;;;;;12.93;7.53;;;9.70;49.10;;;;;;10278778;28;20239;-71
2021/12/13 16:55:47;;;;;;;7.83;6.70;;;9.80;49.00;;;;;;10274652;28;20232;-71
2021/12/13 17:00:53;;;;;;;9.87;8.67;;;9.80;49.10;;;;;;10278122;28;20257;-71
2021/12/13 17:06:00;;;;;;;8.63;7.73;;;9.80;49.10;;;;;;10274396;28;20561;-71
2021/12/13 17:11:09;;;;;;;8.83;7.87;;;9.80;49.00;;;;;;10270268;28;20240;-72
2021/12/13 17:16:15;;;;;;;12.80;9.90;;;9.90;49.20;;;;;;10275362;28;20950;-71
2021/12/13 17:21:24;;;;;;;29.57;11.43;;;9.90;48.90;;;;;;10273817;28;20235;-71
2021/12/13 17:26:44;;;;;;;15.23;11.90;;;9.90;48.90;;;;;;10276837;28;20638;-71
2021/12/13 17:32:01;;;;;;;12.10;10.53;;;9.90;49.00;;;;;;10274689;28;20231;-70
2021/12/13 17:37:09;;;;;;;18.73;8.77;;;9.90;49.00;;;;;;10275225;28;20236;-70
2021/12/13 17:42:17;;;;;;;8.90;7.80;;;9.90;48.90;;;;;;10273825;28;20232;-71
2021/12/13 17:47:28;;;;;;;8.83;7.93;;;9.90;48.90;;;;;;10269341;28;20278;-69
2021/12/13 17:52:45;;;;;;;9.27;8.27;;;9.90;48.90;;;;;;10276449;28;20257;-69
2021/12/13 17:57:52;;;;;;;10.27;7.33;;;9.90;49.10;;;;;;10272216;28;20234;-69
2021/12/13 18:03:21;;;;;;;8.23;6.50;;;9.90;48.80;;;;;;10273150;28;20231;-71
2021/12/13 18:08:42;;;;;;;15.60;7.33;;;9.90;49.30;;;;;;10275038;28;20232;-69
2021/12/13 18:13:48;;;;;;;8.33;7.47;;;10.00;49.00;;;;;;10269792;28;20238;-69
2021/12/13 18:18:52;;;;;;;8.10;7.30;;;10.10;48.90;;;;;;10274152;28;20250;-69
2021/12/13 18:23:56;;;;;;;8.93;8.00;;;10.10;48.50;;;;;;10268848;28;20738;-71
2021/12/13 18:29:04;;;;;;;11.53;9.10;;;10.20;48.30;;;;;;10272405;28;20353;-72
2021/12/13 18:34:10;;;;;;;14.57;11.53;;;10.20;48.40;;;;;;10271134;28;20472;-72
2021/12/13 18:39:16;;;;;;;13.83;11.23;;;10.20;48.20;;;;;;10271413;28;20243;-71
2021/12/13 18:44:30;;;;;;;26.23;11.90;;;10.20;48.00;;;;;;10270188;28;20238;-72
2021/12/13 18:49:57;;;;;;;11.83;10.63;;;10.20;48.10;;;;;;10271320;28;20231;-72
2021/12/13 18:55:07;;;;;;;13.03;11.37;;;10.10;48.10;;;;;;10271376;28;20235;-69
2021/12/13 19:00:16;;;;;;;11.20;9.03;;;10.10;47.90;;;;;;10273558;28;20228;-70
2021/12/13 19:05:23;;;;;;;9.80;8.73;;;10.10;48.10;;;;;;10270481;28;20586;-70
2021/12/13 19:10:37;;;;;;;10.73;9.57;;;10.00;47.80;;;;;;10273998;28;20608;-69
2021/12/13 19:15:43;;;;;;;11.40;9.37;;;10.00;48.10;;;;;;10271836;28;20235;-69
2021/12/13 19:20:52;;;;;;;11.13;9.60;;;10.00;47.90;;;;;;10272113;28;20235;-69
2021/12/13 19:25:59;;;;;;;11.70;10.50;;;10.00;48.00;;;;;;10272578;28;20230;-69
2021/12/13 19:31:12;;;;;;;11.73;10.53;;;10.00;47.90;;;;;;10271657;28;20231;-71
2021/12/13 19:36:19;;;;;;;10.17;9.00;;;10.00;48.70;;;;;;10264001;28;20243;-70
2021/12/13 19:41:25;;;;;;;11.10;9.90;;;10.00;47.90;;;;;;10267727;28;20244;-70
2021/12/13 19:46:37;;;;;;;11.90;10.57;;;10.00;48.00;;;;;;10269919;28;20250;-70
2021/12/13 19:51:51;;;;;;;12.77;10.50;;;10.00;48.10;;;;;;10268740;28;20246;-70
2021/12/13 19:57:02;;;;;;;9.77;8.73;;;10.00;48.00;;;;;;10271852;28;20228;-72
2021/12/13 20:02:11;;;;;;;10.20;9.10;;;10.00;48.00;;;;;;10272497;28;20595;-71
2021/12/13 20:07:25;;;;;;;9.47;8.40;;;10.10;48.00;;;;;;10275389;28;20228;-72
2021/12/13 20:12:33;;;;;;;10.07;8.10;;;10.00;48.10;;;;;;10274804;28;20603;-71
2021/12/13 20:17:41;;;;;;;10.00;8.97;;;10.00;48.70;;;;;;10276712;28;20769;-71
2021/12/13 20:22:51;;;;;;;8.23;7.43;;;10.00;48.00;;;;;;10276737;28;20237;-71
2021/12/13 20:27:59;;;;;;;15.67;10.40;;;10.00;48.10;;;;;;10276751;28;20244;-71
2021/12/13 20:33:07;;;;;;;15.93;11.10;;;10.00;48.00;;;;;;10277326;28;20323;-70
2021/12/13 20:38:14;;;;;;;10.87;9.23;;;10.00;48.10;;;;;;10276169;28;20240;-70
2021/12/13 20:43:27;;;;;;;11.83;9.13;;;10.00;48.10;;;;;;10275730;28;20803;-71
2021/12/13 20:48:35;;;;;;;10.67;8.70;;;10.00;48.00;;;;;;10271430;28;20251;-70
2021/12/13 20:53:39;;;;;;;11.97;8.70;;;10.00;48.00;;;;;;10271608;28;20743;-70
2021/12/13 20:58:46;;;;;;;14.53;11.40;;;9.90;48.60;;;;;;10271709;28;20258;-70
2021/12/13 21:03:57;;;;;;;10.87;8.70;;;9.90;48.90;;;;;;10271008;28;20231;-70
2021/12/13 21:09:16;;;;;;;11.90;10.20;;;9.80;49.10;;;;;;10266042;28;20248;-70
2021/12/13 21:14:22;;;;;;;12.23;10.10;;;9.80;49.10;;;;;;10272182;28;20725;-70
2021/12/13 21:19:34;;;;;;;9.80;7.83;;;9.80;48.90;;;;;;10273922;28;20243;-70
2021/12/13 21:24:42;;;;;;;9.80;7.33;;;9.70;49.00;;;;;;10269290;28;20231;-74
2021/12/13 21:29:50;;;;;;;8.87;7.60;;;9.70;49.20;;;;;;10267194;28;20277;-73
2021/12/13 21:35:02;;;;;;;9.73;7.27;;;9.70;49.20;;;;;;10267743;28;20236;-73
2021/12/13 21:40:09;;;;;;;8.00;6.87;;;9.70;48.90;;;;;;10275300;28;20640;-73
2021/12/13 21:45:20;;;;;;;9.03;6.27;;;9.70;49.00;;;;;;10271430;28;20550;-73
2021/12/13 21:50:29;;;;;;;7.17;5.67;;;9.60;49.10;;;;;;10270243;28;20240;-73
2021/12/13 21:55:35;;;;;;;6.37;5.67;;;9.60;49.00;;;;;;10268555;28;20237;-73
2021/12/13 22:00:42;;;;;;;6.67;5.93;;;9.60;49.00;;;;;;10274090;28;20239;-73
2021/12/13 22:05:50;;;;;;;8.67;5.97;;;9.50;48.90;;;;;;10271434;28;20227;-73
2021/12/13 22:10:59;;;;;;;6.30;5.70;;;9.50;48.90;;;;;;10271356;28;20235;-73
2021/12/13 22:16:07;;;;;;;7.90;6.80;;;9.50;49.00;;;;;;10272225;28;20231;-72
2021/12/13 22:21:16;;;;;;;7.50;6.70;;;9.50;49.00;;;;;;10273560;28;20379;-73
2021/12/13 22:26:20;;;;;;;8.50;7.30;;;9.40;49.10;;;;;;10268389;28;20236;-73
2021/12/13 22:31:28;;;;;;;9.17;7.20;;;9.50;49.20;;;;;;10274791;28;20242;-73
2021/12/13 22:36:36;;;;;;;10.40;7.87;;;9.50;49.20;;;;;;10272320;28;20239;-73
2021/12/13 22:41:42;;;;;;;12.57;8.00;;;9.50;49.10;;;;;;10273861;28;20666;-73
2021/12/13 22:46:48;;;;;;;9.80;6.87;;;9.50;49.00;;;;;;10269027;28;20225;-73
2021/12/13 22:51:57;;;;;;;13.00;8.20;;;9.50;48.90;;;;;;10273154;28;20248;-73
2021/12/13 22:57:01;;;;;;;11.77;8.03;;;9.50;48.90;;;;;;10270096;28;20236;-73
2021/12/13 23:02:08;;;;;;;10.70;8.00;;;9.50;48.70;;;;;;10271598;28;20228;-69
2021/12/13 23:07:19;;;;;;;10.20;7.30;;;9.50;49.00;;;;;;10269291;28;20227;-69
2021/12/13 23:17:48;;;;;;;12.43;7.87;;;9.50;48.90;;;;;;10272481;28;20244;-69
2021/12/13 23:22:54;;;;;;;11.87;8.83;;;9.50;48.90;;;;;;10267551;28;20250;-69
2021/12/13 23:27:59;;;;;;;17.80;8.63;;;9.60;48.90;;;;;;10274342;28;20237;-70
2021/12/13 23:33:07;;;;;;;12.67;7.83;;;9.50;48.80;;;;;;10277312;28;20615;-70
2021/12/13 23:38:22;;;;;;;11.97;7.03;;;9.50;48.70;;;;;;10279226;28;20227;-70
2021/12/13 23:48:47;;;;;;;17.73;7.80;;;9.50;48.60;;;;;;10277478;28;20263;-70
2021/12/13 23:53:53;;;;;;;28.80;7.83;;;9.40;48.60;;;;;;10281173;28;20726;-69
2021/12/13 23:59:00;;;;;;;21.83;7.90;;;9.40;48.70;;;;;;10273693;28;20244;-70
